createdAt,value
2022-10-30T00:02:18.339Z,12.40
2022-10-30T00:05:03.302Z,12.38
2022-10-30T00:07:48.467Z,12.37
2022-10-30T00:10:33.956Z,12.29
2022-10-30T00:13:20.199Z,12.23
2022-10-30T00:16:07.458Z,12.18
2022-10-30T00:18:52.133Z,12.12
2022-10-30T00:21:36.986Z,12.11
2022-10-30T00:24:21.913Z,12.08
2022-10-30T00:27:06.883Z,12.04
2022-10-30T00:29:51.742Z,12.04
2022-10-30T00:32:36.978Z,12.06
2022-10-30T00:35:22.448Z,12.04
2022-10-30T00:38:07.604Z,11.99
2022-10-30T00:40:52.559Z,11.96
2022-10-30T00:43:39.800Z,11.90
2022-10-30T00:46:32.944Z,11.82
2022-10-30T00:49:19.208Z,11.77
2022-10-30T00:52:08.915Z,11.70
2022-10-30T00:54:55.803Z,11.67
2022-10-30T00:57:42.009Z,11.65
2022-10-30T01:00:29.475Z,11.65
2022-10-30T01:03:15.320Z,11.66
2022-10-30T01:06:05.182Z,11.70
2022-10-30T01:08:55.298Z,11.72
2022-10-30T01:11:44.091Z,11.73
2022-10-30T01:14:29.214Z,11.73
2022-10-30T01:17:24.954Z,11.74
2022-10-30T01:20:32.644Z,11.74
2022-10-30T01:24:05.535Z,11.70
2022-10-30T01:27:06.884Z,11.64
2022-10-30T01:30:29.710Z,11.60
2022-10-30T01:33:30.466Z,11.58
2022-10-30T01:36:31.141Z,11.55
2022-10-30T01:39:29.970Z,11.54
2022-10-30T01:42:45.679Z,11.54
2022-10-30T01:45:57.313Z,11.54
2022-10-30T01:49:08.434Z,11.53
2022-10-30T01:52:12.424Z,11.55
2022-10-30T01:55:15.714Z,11.54
2022-10-30T01:58:16.644Z,11.52
2022-10-30T02:01:02.399Z,11.51
2022-10-30T02:03:48.254Z,11.51
2022-10-30T02:06:33.431Z,11.48
2022-10-30T02:09:18.365Z,11.45
2022-10-30T02:12:08.361Z,11.49
2022-10-30T02:14:58.413Z,11.48
2022-10-30T02:17:43.505Z,11.45
2022-10-30T02:20:28.667Z,11.43
2022-10-30T02:23:18.278Z,11.41
2022-10-30T02:26:03.611Z,11.38
2022-10-30T02:28:48.183Z,11.38
2022-10-30T02:31:33.138Z,11.36
2022-10-30T02:34:18.174Z,11.34
2022-10-30T02:37:03.183Z,11.27
2022-10-30T02:39:47.958Z,11.22
2022-10-30T02:42:33.244Z,11.18
2022-10-30T02:45:17.793Z,11.12
2022-10-30T02:48:03.574Z,11.07
2022-10-30T02:50:49.467Z,11.02
2022-10-30T02:53:34.926Z,11.00
2022-10-30T02:56:19.755Z,10.99
2022-10-30T02:59:04.787Z,10.96
2022-10-30T03:01:50.031Z,10.94
2022-10-30T03:04:34.802Z,10.93
2022-10-30T03:07:19.745Z,10.88
2022-10-30T03:10:05.011Z,10.86
2022-10-30T03:12:50.927Z,10.87
2022-10-30T03:15:35.631Z,10.85
2022-10-30T03:18:20.375Z,10.83
2022-10-30T03:21:06.944Z,10.76
2022-10-30T03:23:52.766Z,10.76
2022-10-30T03:26:37.868Z,10.69
2022-10-30T03:29:24.960Z,10.66
2022-10-30T03:32:10.771Z,10.65
2022-10-30T03:35:03.026Z,10.63
2022-10-30T03:37:48.192Z,10.64
2022-10-30T03:40:32.860Z,10.62
2022-10-30T03:43:18.748Z,10.66
2022-10-30T03:46:04.227Z,10.74
2022-10-30T03:48:50.385Z,10.78
2022-10-30T03:51:35.438Z,10.85
2022-10-30T03:54:20.447Z,10.90
2022-10-30T03:57:05.435Z,10.95
2022-10-30T03:59:59.483Z,11.00
2022-10-30T04:02:59.340Z,11.01
2022-10-30T04:05:45.947Z,11.01
2022-10-30T04:08:34.764Z,11.00
2022-10-30T04:11:20.738Z,11.07
2022-10-30T04:14:05.692Z,11.11
2022-10-30T04:16:51.253Z,11.10
2022-10-30T04:19:35.877Z,11.12
2022-10-30T04:22:20.798Z,11.10
2022-10-30T04:25:05.995Z,11.11
2022-10-30T04:27:54.139Z,11.09
2022-10-30T04:30:40.029Z,11.09
2022-10-30T04:33:24.707Z,11.07
2022-10-30T04:36:09.930Z,11.10
2022-10-30T04:38:54.849Z,11.07
2022-10-30T04:41:42.174Z,11.05
2022-10-30T04:44:33.708Z,11.06
2022-10-30T04:47:18.856Z,10.99
2022-10-30T04:50:04.226Z,10.91
2022-10-30T04:52:58.468Z,10.89
2022-10-30T04:55:44.150Z,10.88
2022-10-30T04:58:30.032Z,10.87
2022-10-30T05:01:21.096Z,10.84
2022-10-30T05:04:05.818Z,10.81
2022-10-30T05:06:50.897Z,10.83
2022-10-30T05:09:36.160Z,10.81
2022-10-30T05:12:21.618Z,10.82
2022-10-30T05:15:13.028Z,10.86
2022-10-30T05:17:58.311Z,10.87
2022-10-30T05:20:46.500Z,10.87
2022-10-30T05:23:31.541Z,10.88
2022-10-30T05:26:16.189Z,10.86
2022-10-30T05:29:01.211Z,10.90
2022-10-30T05:31:46.278Z,10.91
2022-10-30T05:34:33.825Z,10.92
2022-10-30T05:37:18.776Z,10.93
2022-10-30T05:40:04.088Z,10.94
2022-10-30T05:42:49.476Z,11.00
2022-10-30T05:45:34.098Z,11.03
2022-10-30T05:48:20.040Z,11.06
2022-10-30T05:51:07.831Z,11.10
2022-10-30T05:53:54.666Z,11.13
2022-10-30T05:56:43.232Z,11.16
2022-10-30T05:59:28.271Z,11.16
2022-10-30T06:02:12.524Z,11.17
2022-10-30T06:04:57.184Z,11.15
2022-10-30T06:07:42.704Z,11.17
2022-10-30T06:10:27.656Z,11.19
2022-10-30T06:13:31.330Z,11.17
2022-10-30T06:16:23.192Z,11.23
2022-10-30T06:19:28.162Z,11.23
2022-10-30T06:22:21.283Z,11.26
2022-10-30T06:25:12.514Z,11.30
2022-10-30T06:28:10.688Z,11.31
2022-10-30T06:30:55.740Z,11.35
2022-10-30T06:33:41.043Z,11.31
2022-10-30T06:36:26.232Z,11.39
2022-10-30T06:39:11.849Z,11.57
2022-10-30T06:42:04.741Z,11.53
2022-10-30T06:45:10.966Z,11.57
2022-10-30T06:47:55.956Z,11.57
2022-10-30T06:50:41.203Z,11.67
2022-10-30T06:53:26.143Z,11.68
2022-10-30T06:56:13.768Z,11.70
2022-10-30T06:59:18.619Z,11.95
2022-10-30T07:02:11.293Z,12.33
2022-10-30T07:05:06.715Z,12.75
2022-10-30T07:07:51.288Z,12.77
2022-10-30T07:10:40.089Z,12.64
2022-10-30T07:13:41.553Z,12.86
2022-10-30T07:16:47.189Z,12.77
2022-10-30T07:19:32.004Z,12.74
2022-10-30T07:22:17.101Z,12.61
2022-10-30T07:25:06.699Z,12.28
2022-10-30T07:28:31.113Z,12.18
2022-10-30T07:31:42.182Z,12.38
2022-10-30T07:34:31.227Z,12.45
2022-10-30T07:37:35.114Z,12.67
2022-10-30T07:40:25.364Z,13.02
2022-10-30T07:43:36.650Z,13.24
2022-10-30T07:46:40.233Z,13.33
2022-10-30T07:49:40.470Z,13.46
2022-10-30T07:52:31.159Z,13.42
2022-10-30T07:55:16.217Z,13.46
2022-10-30T07:58:01.117Z,13.44
2022-10-30T08:01:19.017Z,13.39
2022-10-30T08:04:04.167Z,13.39
2022-10-30T08:06:49.420Z,13.36
2022-10-30T08:09:34.391Z,13.44
2022-10-30T08:12:20.436Z,13.67
2022-10-30T08:15:06.277Z,13.21
2022-10-30T08:17:52.059Z,13.71
2022-10-30T08:20:38.410Z,13.65
2022-10-30T08:23:23.365Z,13.68
2022-10-30T08:26:08.918Z,13.50
2022-10-30T08:28:54.497Z,13.41
2022-10-30T08:31:40.303Z,13.17
2022-10-30T08:34:40.023Z,13.58
2022-10-30T08:37:25.388Z,13.60
2022-10-30T08:40:11.157Z,13.40
2022-10-30T08:43:07.832Z,13.84
2022-10-30T08:45:52.736Z,14.46
2022-10-30T08:48:39.932Z,14.19
2022-10-30T08:51:24.626Z,14.13
2022-10-30T08:54:10.179Z,13.76
2022-10-30T08:56:55.121Z,13.68
2022-10-30T08:59:41.727Z,13.84
2022-10-30T09:02:35.896Z,14.07
2022-10-30T09:05:39.966Z,14.09
2022-10-30T09:08:46.083Z,14.47
2022-10-30T09:12:00.077Z,14.59
2022-10-30T09:14:45.544Z,14.67
2022-10-30T09:17:31.148Z,14.41
2022-10-30T09:20:16.084Z,14.26
2022-10-30T09:23:01.633Z,14.29
2022-10-30T09:25:47.004Z,14.02
2022-10-30T09:28:45.066Z,14.24
2022-10-30T09:31:53.288Z,14.43
2022-10-30T09:34:39.031Z,14.55
2022-10-30T09:37:39.054Z,14.57
2022-10-30T09:41:05.237Z,14.38
2022-10-30T09:44:11.077Z,14.50
2022-10-30T09:47:11.042Z,14.63
2022-10-30T09:50:14.839Z,14.87
2022-10-30T09:53:10.529Z,14.56
2022-10-30T09:56:22.383Z,14.22
2022-10-30T09:59:35.653Z,13.93
2022-10-30T10:02:34.127Z,13.99
2022-10-30T10:05:29.540Z,14.06
2022-10-30T10:08:45.287Z,13.83
2022-10-30T10:12:13.337Z,14.76
2022-10-30T10:15:01.998Z,15.10
2022-10-30T10:17:47.220Z,15.06
2022-10-30T10:20:40.827Z,14.88
2022-10-30T10:23:50.037Z,14.75
2022-10-30T10:26:51.546Z,14.70
2022-10-30T10:29:58.679Z,14.33
2022-10-30T10:33:03.094Z,14.21
2022-10-30T10:35:53.969Z,14.25
2022-10-30T10:39:19.315Z,14.32
2022-10-30T10:42:16.080Z,14.27
2022-10-30T10:45:22.396Z,14.21
2022-10-30T10:48:29.602Z,14.22
2022-10-30T10:51:38.920Z,14.21
2022-10-30T10:54:27.428Z,14.24
2022-10-30T10:57:25.616Z,14.37
2022-10-30T11:00:15.380Z,14.86
2022-10-30T11:06:26.607Z,16.06
2022-10-30T11:09:16.083Z,15.85
2022-10-30T11:12:01.255Z,15.43
2022-10-30T11:14:46.068Z,15.10
2022-10-30T11:17:53.574Z,14.53
2022-10-30T11:20:56.311Z,14.35
2022-10-30T11:23:47.938Z,14.31
2022-10-30T11:26:34.227Z,14.38
2022-10-30T11:29:24.349Z,14.23
2022-10-30T11:32:22.099Z,14.24
2022-10-30T11:35:07.077Z,14.03
2022-10-30T11:38:13.106Z,14.02
2022-10-30T11:41:01.342Z,14.29
2022-10-30T11:43:48.556Z,14.78
2022-10-30T11:46:36.313Z,15.25
2022-10-30T11:49:35.853Z,15.43
2022-10-30T11:52:24.216Z,15.52
2022-10-30T11:55:27.563Z,14.80
2022-10-30T11:58:36.032Z,14.57
2022-10-30T12:01:31.576Z,14.38
2022-10-30T12:04:24.302Z,14.25
2022-10-30T12:07:10.109Z,14.61
2022-10-30T12:09:57.062Z,15.28
2022-10-30T12:12:42.840Z,15.65
2022-10-30T12:15:27.760Z,15.87
2022-10-30T12:18:20.940Z,15.95
2022-10-30T12:21:05.867Z,16.12
2022-10-30T12:24:01.835Z,16.40
2022-10-30T12:26:53.600Z,16.79
2022-10-30T12:30:07.485Z,17.21
2022-10-30T12:32:58.359Z,17.49
2022-10-30T12:35:57.653Z,17.42
2022-10-30T12:38:49.486Z,17.18
2022-10-30T12:41:46.270Z,16.62
2022-10-30T12:44:37.014Z,16.19
2022-10-30T12:51:22.960Z,15.74
2022-10-30T12:54:32.120Z,15.63
2022-10-30T12:57:26.453Z,15.57
2022-10-30T13:00:16.551Z,15.34
2022-10-30T13:03:14.188Z,15.19
2022-10-30T13:06:23.434Z,15.20
2022-10-30T13:09:30.413Z,15.14
2022-10-30T13:12:28.537Z,15.06
2022-10-30T13:15:22.773Z,14.89
2022-10-30T13:18:17.151Z,14.79
2022-10-30T13:21:18.546Z,14.63
2022-10-30T13:24:08.757Z,14.42
2022-10-30T13:27:20.685Z,14.43
2022-10-30T13:30:10.540Z,14.43
2022-10-30T13:33:10.834Z,14.37
2022-10-30T13:36:32.582Z,14.40
2022-10-30T13:39:42.862Z,14.39
2022-10-30T13:42:50.198Z,14.38
2022-10-30T13:45:55.200Z,14.32
2022-10-30T13:49:04.588Z,14.21
2022-10-30T13:52:00.770Z,14.13
2022-10-30T13:55:09.402Z,14.11
2022-10-30T13:58:18.475Z,14.13
2022-10-30T14:01:22.439Z,14.07
2022-10-30T14:04:13.255Z,14.05
2022-10-30T14:07:23.585Z,13.92
2022-10-30T14:10:19.496Z,13.80
2022-10-30T14:13:14.488Z,13.66
2022-10-30T14:16:07.183Z,13.49
2022-10-30T14:19:00.113Z,13.39
2022-10-30T14:21:53.312Z,13.25
2022-10-30T14:24:44.361Z,13.13
2022-10-30T14:27:32.066Z,12.98
2022-10-30T14:30:20.339Z,12.89
2022-10-30T14:33:05.117Z,12.76
2022-10-30T14:36:12.757Z,12.68
2022-10-30T14:39:10.296Z,12.57
2022-10-30T14:42:13.797Z,12.45
2022-10-30T14:45:38.630Z,12.31
2022-10-30T14:48:51.207Z,12.14
2022-10-30T14:51:53.866Z,12.01
2022-10-30T14:54:57.574Z,11.87
2022-10-30T14:57:47.210Z,11.79
2022-10-30T15:00:35.004Z,11.69
2022-10-30T15:03:25.923Z,11.57
2022-10-30T15:06:31.673Z,11.52
2022-10-30T15:09:32.884Z,11.38
2022-10-30T15:12:30.247Z,11.27
2022-10-30T15:15:18.151Z,11.11
2022-10-30T15:18:15.924Z,11.05
2022-10-30T15:21:06.265Z,10.97
2022-10-30T15:23:56.783Z,10.90
2022-10-30T15:26:44.972Z,10.83
2022-10-30T15:29:36.105Z,10.81
2022-10-30T15:32:23.640Z,10.74
2022-10-30T15:35:18.773Z,10.66
2022-10-30T15:38:09.564Z,10.51
2022-10-30T15:41:03.904Z,10.42
2022-10-30T15:43:49.015Z,10.28
2022-10-30T15:46:33.965Z,10.23
2022-10-30T15:49:37.294Z,10.22
2022-10-30T15:52:31.585Z,10.20
2022-10-30T15:55:20.029Z,10.11
2022-10-30T15:58:05.378Z,10.08
2022-10-30T16:00:59.459Z,10.11
2022-10-30T16:03:51.026Z,10.02
2022-10-30T16:06:36.096Z,9.94
2022-10-30T16:09:21.610Z,9.85
2022-10-30T16:12:11.709Z,9.75
2022-10-30T16:15:08.417Z,9.76
2022-10-30T16:18:21.493Z,9.67
2022-10-30T16:21:09.034Z,9.62
2022-10-30T16:23:56.792Z,9.55
2022-10-30T16:26:41.504Z,9.55
2022-10-30T16:29:27.253Z,9.58
2022-10-30T16:32:16.946Z,9.59
2022-10-30T16:35:04.243Z,9.56
2022-10-30T16:37:50.153Z,9.57
2022-10-30T16:40:35.336Z,9.53
2022-10-30T16:43:29.189Z,9.55
2022-10-30T16:46:13.933Z,9.57
2022-10-30T16:49:02.744Z,9.54
2022-10-30T16:51:50.479Z,9.51
2022-10-30T16:54:39.138Z,9.41
2022-10-30T16:57:28.410Z,9.32
2022-10-30T17:00:25.794Z,9.32
2022-10-30T17:03:12.088Z,9.20
2022-10-30T17:06:06.790Z,9.18
2022-10-30T17:08:54.153Z,9.09
2022-10-30T17:11:44.080Z,9.07
2022-10-30T17:14:29.346Z,9.02
2022-10-30T17:17:29.180Z,8.98
2022-10-30T17:20:21.796Z,8.90
2022-10-30T17:23:19.090Z,8.87
2022-10-30T17:26:09.784Z,8.80
2022-10-30T17:28:55.006Z,8.75
2022-10-30T17:31:39.636Z,8.71
2022-10-30T17:34:24.613Z,8.67
2022-10-30T17:37:09.546Z,8.58
2022-10-30T17:39:54.625Z,8.57
2022-10-30T17:42:39.988Z,8.55
2022-10-30T17:45:24.706Z,8.46
2022-10-30T17:48:15.196Z,8.53
2022-10-30T17:50:59.720Z,8.51
2022-10-30T17:53:47.700Z,8.51
2022-10-30T17:56:33.780Z,8.49
2022-10-30T17:59:19.056Z,8.42
2022-10-30T18:02:13.838Z,8.39
2022-10-30T18:04:58.781Z,8.41
2022-10-30T18:07:44.520Z,8.39
2022-10-30T18:10:29.665Z,8.39
2022-10-30T18:13:14.992Z,8.40
2022-10-30T18:15:59.788Z,8.50
2022-10-30T18:18:47.518Z,8.64
2022-10-30T18:21:32.261Z,8.85
2022-10-30T18:24:18.114Z,8.97
2022-10-30T18:27:02.868Z,9.04
2022-10-30T18:29:47.723Z,9.06
2022-10-30T18:32:32.939Z,9.14
2022-10-30T18:35:29.985Z,9.16
2022-10-30T18:38:16.339Z,9.17
2022-10-30T18:41:01.023Z,9.19
2022-10-30T18:43:47.137Z,9.17
2022-10-30T18:46:34.113Z,9.20
2022-10-30T18:49:23.757Z,9.16
2022-10-30T18:52:08.745Z,9.13
2022-10-30T18:54:54.538Z,9.03
2022-10-30T18:57:39.300Z,8.91
2022-10-30T19:00:34.965Z,8.81
2022-10-30T19:03:24.500Z,8.74
2022-10-30T19:06:12.905Z,8.68
2022-10-30T19:08:57.605Z,8.64
2022-10-30T19:11:44.590Z,8.56
2022-10-30T19:14:29.780Z,8.48
2022-10-30T19:17:14.354Z,8.43
2022-10-30T19:19:59.439Z,8.44
2022-10-30T19:22:44.361Z,8.47
2022-10-30T19:25:33.711Z,8.43
2022-10-30T19:28:20.391Z,8.42
2022-10-30T19:31:05.225Z,8.37
2022-10-30T19:33:53.184Z,8.37
2022-10-30T19:36:42.119Z,8.45
2022-10-30T19:39:27.665Z,8.63
2022-10-30T19:42:12.163Z,8.71
2022-10-30T19:44:57.357Z,8.77
2022-10-30T19:47:42.643Z,8.82
2022-10-30T19:50:34.118Z,8.85
2022-10-30T19:53:19.080Z,8.89
2022-10-30T19:56:04.581Z,8.88
2022-10-30T19:58:49.684Z,8.87
2022-10-30T20:01:34.638Z,8.81
2022-10-30T20:04:19.513Z,8.68
2022-10-30T20:07:04.562Z,8.58
2022-10-30T20:09:49.632Z,8.53
2022-10-30T20:12:34.397Z,8.47
2022-10-30T20:15:22.051Z,8.42
2022-10-30T20:18:16.525Z,8.34
2022-10-30T20:21:09.344Z,8.28
2022-10-30T20:23:53.955Z,8.21
2022-10-30T20:26:41.198Z,8.26
2022-10-30T20:29:26.471Z,8.25
2022-10-30T20:32:11.062Z,8.27
2022-10-30T20:34:56.021Z,8.25
2022-10-30T20:37:42.431Z,8.23
2022-10-30T20:40:28.651Z,8.23
2022-10-30T20:43:17.287Z,8.17
2022-10-30T20:46:04.310Z,8.10
2022-10-30T20:48:49.472Z,8.04
2022-10-30T20:51:34.111Z,8.10
2022-10-30T20:54:19.358Z,8.10
2022-10-30T20:57:04.278Z,8.04
2022-10-30T20:59:49.345Z,8.01
2022-10-30T21:02:34.437Z,7.88
2022-10-30T21:05:38.545Z,7.85
2022-10-30T21:08:30.686Z,7.80
2022-10-30T21:11:15.598Z,7.76
2022-10-30T21:14:00.645Z,7.71
2022-10-30T21:16:45.481Z,7.68
2022-10-30T21:19:30.489Z,7.69
2022-10-30T21:22:15.535Z,7.65
2022-10-30T21:25:00.447Z,7.61
2022-10-30T21:30:35.533Z,7.56
2022-10-30T21:33:20.579Z,7.50
2022-10-30T21:36:13.292Z,7.41
2022-10-30T21:38:59.047Z,7.41
2022-10-30T21:41:43.573Z,7.38
2022-10-30T21:44:28.760Z,7.35
2022-10-30T21:47:13.784Z,7.37
2022-10-30T21:49:58.807Z,7.30
2022-10-30T21:52:43.855Z,7.34
2022-10-30T21:55:28.691Z,7.31
2022-10-30T21:58:13.697Z,7.32
2022-10-30T22:00:58.587Z,7.30
2022-10-30T22:03:43.886Z,7.24
2022-10-30T22:06:29.274Z,7.22
2022-10-30T22:09:15.842Z,7.22
2022-10-30T22:12:00.988Z,7.17
2022-10-30T22:14:45.684Z,7.20
2022-10-30T22:17:33.890Z,7.22
2022-10-30T22:20:19.742Z,7.20
2022-10-30T22:23:04.761Z,7.17
2022-10-30T22:25:57.085Z,7.15
2022-10-30T22:28:42.910Z,7.13
2022-10-30T22:31:29.461Z,7.13
2022-10-30T22:34:14.018Z,7.10
2022-10-30T22:36:59.553Z,7.10
2022-10-30T22:39:44.058Z,7.15
2022-10-30T22:42:29.055Z,7.19
2022-10-30T22:45:13.840Z,7.17
2022-10-30T22:47:58.900Z,7.16
2022-10-30T22:50:44.056Z,7.15
2022-10-30T22:53:30.407Z,7.15
2022-10-30T22:56:17.776Z,7.13
2022-10-30T22:59:04.764Z,7.14
2022-10-30T23:01:49.568Z,7.15
2022-10-30T23:04:34.442Z,7.19
2022-10-30T23:07:19.476Z,7.17
2022-10-30T23:10:05.277Z,7.13
2022-10-30T23:12:50.507Z,7.14
2022-10-30T23:15:38.145Z,7.14
2022-10-30T23:18:23.179Z,7.11
2022-10-30T23:21:14.239Z,7.09
2022-10-30T23:24:01.232Z,7.01
2022-10-30T23:26:45.962Z,6.99
2022-10-30T23:29:30.746Z,7.00
2022-10-30T23:32:15.778Z,6.94
2022-10-30T23:35:00.578Z,6.98
2022-10-30T23:37:45.614Z,6.93
2022-10-30T23:40:30.833Z,6.92
2022-10-30T23:46:05.572Z,6.83
2022-10-30T23:48:50.662Z,6.84
2022-10-30T23:51:35.361Z,6.79
2022-10-30T23:54:20.220Z,6.82
2022-10-30T23:57:05.185Z,6.84
2022-10-30T23:59:50.324Z,6.90
